sensor_id;sensor_type;location;lat;lon;timestamp;P1;durP1;ratioP1;P2;durP2;ratioP2
1090;SDS011;534;48.704;9.122;2024-03-08T05:00:55;21.53;;;14.17;;
1090;SDS011;534;48.704;9.122;2024-03-08T05:03:22;20.13;;;14.70;;
1090;SDS011;534;48.704;9.122;2024-03-08T05:05:50;25.20;;;17.10;;
1090;SDS011;534;48.704;9.122;2024-03-08T05:08:18;20.30;;;13.53;;
1090;SDS011;534;48.704;9.122;2024-03-08T05:10:44;21.60;;;14.20;;
1090;SDS011;534;48.704;9.122;2024-03-08T05:13:11;22.83;;;14.50;;
1090;SDS011;534;48.704;9.122;2024-03-08T05:18:07;23.40;;;16.30;;
1090;SDS011;534;48.704;9.122;2024-03-08T05:20:36;22.87;;;16.17;;
1090;SDS011;534;48.704;9.122;2024-03-08T05:23:03;24.60;;;15.70;;
1090;SDS011;534;48.704;9.122;2024-03-08T05:25:30;22.70;;;15.37;;
1090;SDS011;534;48.704;9.122;2024-03-08T05:27:57;21.10;;;16.10;;
1090;SDS011;534;48.704;9.122;2024-03-08T05:30:23;25.40;;;15.93;;
1090;SDS011;534;48.704;9.122;2024-03-08T05:32:50;19.63;;;14.00;;
1090;SDS011;534;48.704;9.122;2024-03-08T05:35:18;20.17;;;15.23;;
1090;SDS011;534;48.704;9.122;2024-03-08T05:37:45;23.10;;;15.07;;
1090;SDS011;534;48.704;9.122;2024-03-08T05:40:12;21.83;;;14.80;;
1090;SDS011;534;48.704;9.122;2024-03-08T05:42:40;22.90;;;16.73;;
1090;SDS011;534;48.704;9.122;2024-03-08T05:45:07;22.00;;;15.60;;
1090;SDS011;534;48.704;9.122;2024-03-08T05:47:35;18.43;;;15.10;;
1090;SDS011;534;48.704;9.122;2024-03-08T05:50:02;24.70;;;17.60;;
1090;SDS011;534;48.704;9.122;2024-03-08T05:52:31;28.27;;;16.13;;
1090;SDS011;534;48.704;9.122;2024-03-08T05:54:58;23.87;;;16.90;;
1090;SDS011;534;48.704;9.122;2024-03-08T05:57:25;19.80;;;14.90;;
1090;SDS011;534;48.704;9.122;2024-03-08T05:59:52;20.87;;;14.43;;
1090;SDS011;534;48.704;9.122;2024-03-08T06:02:18;22.23;;;15.30;;
1090;SDS011;534;48.704;9.122;2024-03-08T06:04:45;21.73;;;14.00;;
1090;SDS011;534;48.704;9.122;2024-03-08T06:07:12;24.80;;;16.60;;
1090;SDS011;534;48.704;9.122;2024-03-08T06:09:40;24.10;;;15.00;;
1090;SDS011;534;48.704;9.122;2024-03-08T06:12:10;21.13;;;14.87;;
1090;SDS011;534;48.704;9.122;2024-03-08T06:14:36;21.37;;;14.67;;
1090;SDS011;534;48.704;9.122;2024-03-08T06:17:03;31.87;;;18.30;;
1090;SDS011;534;48.704;9.122;2024-03-08T06:19:32;22.40;;;14.50;;
1090;SDS011;534;48.704;9.122;2024-03-08T06:21:58;22.50;;;14.50;;
1090;SDS011;534;48.704;9.122;2024-03-08T06:24:27;23.83;;;15.33;;
1090;SDS011;534;48.704;9.122;2024-03-08T06:26:55;26.70;;;15.80;;
1090;SDS011;534;48.704;9.122;2024-03-08T06:29:22;22.87;;;16.47;;
1090;SDS011;534;48.704;9.122;2024-03-08T06:31:49;21.57;;;15.63;;
1090;SDS011;534;48.704;9.122;2024-03-08T06:34:15;20.70;;;14.47;;
1090;SDS011;534;48.704;9.122;2024-03-08T06:36:43;21.53;;;16.70;;
1090;SDS011;534;48.704;9.122;2024-03-08T06:39:09;22.07;;;16.20;;
1090;SDS011;534;48.704;9.122;2024-03-08T06:41:36;25.70;;;16.83;;
1090;SDS011;534;48.704;9.122;2024-03-08T06:44:04;22.23;;;15.93;;
1090;SDS011;534;48.704;9.122;2024-03-08T06:46:32;22.77;;;16.63;;
1090;SDS011;534;48.704;9.122;2024-03-08T06:48:59;22.90;;;17.10;;
1090;SDS011;534;48.704;9.122;2024-03-08T06:51:26;25.83;;;17.50;;
1090;SDS011;534;48.704;9.122;2024-03-08T06:53:52;27.73;;;19.57;;
1090;SDS011;534;48.704;9.122;2024-03-08T06:56:19;28.67;;;19.07;;
1090;SDS011;534;48.704;9.122;2024-03-08T06:58:47;27.17;;;19.70;;
1090;SDS011;534;48.704;9.122;2024-03-08T07:01:15;25.93;;;19.50;;
1090;SDS011;534;48.704;9.122;2024-03-08T07:03:42;26.60;;;17.60;;
1090;SDS011;534;48.704;9.122;2024-03-08T07:06:09;27.70;;;17.50;;
1090;SDS011;534;48.704;9.122;2024-03-08T07:08:36;24.33;;;18.10;;
1090;SDS011;534;48.704;9.122;2024-03-08T07:11:03;24.40;;;17.80;;
1090;SDS011;534;48.704;9.122;2024-03-08T07:13:29;28.93;;;17.67;;
1090;SDS011;534;48.704;9.122;2024-03-08T07:15:56;21.83;;;16.10;;
1090;SDS011;534;48.704;9.122;2024-03-08T07:18:26;24.77;;;16.10;;
1090;SDS011;534;48.704;9.122;2024-03-08T07:20:54;24.77;;;16.97;;
1090;SDS011;534;48.704;9.122;2024-03-08T07:23:21;22.07;;;16.00;;
1090;SDS011;534;48.704;9.122;2024-03-08T07:26:02;20.60;;;14.63;;
1090;SDS011;534;48.704;9.122;2024-03-08T07:28:28;24.80;;;17.57;;
1090;SDS011;534;48.704;9.122;2024-03-08T07:30:56;27.87;;;17.60;;
1090;SDS011;534;48.704;9.122;2024-03-08T07:33:36;26.00;;;17.27;;
1090;SDS011;534;48.704;9.122;2024-03-08T07:36:03;25.10;;;18.50;;
1090;SDS011;534;48.704;9.122;2024-03-08T07:38:30;23.07;;;17.30;;
1090;SDS011;534;48.704;9.122;2024-03-08T07:40:57;23.47;;;18.03;;
1090;SDS011;534;48.704;9.122;2024-03-08T07:43:23;28.17;;;17.97;;
1090;SDS011;534;48.704;9.122;2024-03-08T07:45:50;28.80;;;19.43;;
1090;SDS011;534;48.704;9.122;2024-03-08T07:48:18;25.17;;;18.87;;
1090;SDS011;534;48.704;9.122;2024-03-08T07:50:46;25.30;;;17.97;;
1090;SDS011;534;48.704;9.122;2024-03-08T07:53:14;21.17;;;16.40;;
1090;SDS011;534;48.704;9.122;2024-03-08T07:55:41;25.60;;;17.60;;
1090;SDS011;534;48.704;9.122;2024-03-08T07:58:09;25.93;;;19.00;;
1090;SDS011;534;48.704;9.122;2024-03-08T08:00:36;25.27;;;17.00;;
1090;SDS011;534;48.704;9.122;2024-03-08T08:03:03;27.60;;;18.47;;
1090;SDS011;534;48.704;9.122;2024-03-08T08:05:30;30.53;;;20.43;;
1090;SDS011;534;48.704;9.122;2024-03-08T08:08:01;24.73;;;17.10;;
1090;SDS011;534;48.704;9.122;2024-03-08T08:10:31;30.00;;;20.50;;
1090;SDS011;534;48.704;9.122;2024-03-08T08:12:58;23.57;;;15.03;;
1090;SDS011;534;48.704;9.122;2024-03-08T08:15:23;22.50;;;15.30;;
1090;SDS011;534;48.704;9.122;2024-03-08T08:17:50;25.00;;;17.27;;
1090;SDS011;534;48.704;9.122;2024-03-08T08:20:17;20.17;;;15.60;;
1090;SDS011;534;48.704;9.122;2024-03-08T08:22:44;26.80;;;17.30;;
1090;SDS011;534;48.704;9.122;2024-03-08T08:25:14;22.27;;;16.87;;
1090;SDS011;534;48.704;9.122;2024-03-08T08:27:41;27.30;;;17.37;;
1090;SDS011;534;48.704;9.122;2024-03-08T08:30:08;26.33;;;16.83;;
1090;SDS011;534;48.704;9.122;2024-03-08T08:32:36;21.37;;;16.53;;
1090;SDS011;534;48.704;9.122;2024-03-08T08:35:04;24.27;;;16.30;;
1090;SDS011;534;48.704;9.122;2024-03-08T08:37:34;24.93;;;16.47;;
1090;SDS011;534;48.704;9.122;2024-03-08T08:40:02;23.70;;;16.33;;
1090;SDS011;534;48.704;9.122;2024-03-08T08:42:35;24.60;;;17.00;;
1090;SDS011;534;48.704;9.122;2024-03-08T08:45:02;27.10;;;18.13;;
1090;SDS011;534;48.704;9.122;2024-03-08T08:47:33;25.17;;;14.90;;
1090;SDS011;534;48.704;9.122;2024-03-08T08:50:00;26.10;;;16.63;;
1090;SDS011;534;48.704;9.122;2024-03-08T08:52:27;24.73;;;15.80;;
1090;SDS011;534;48.704;9.122;2024-03-08T08:54:54;25.67;;;15.70;;
1090;SDS011;534;48.704;9.122;2024-03-08T08:57:21;25.07;;;16.27;;
1090;SDS011;534;48.704;9.122;2024-03-08T08:59:49;24.70;;;15.43;;
1090;SDS011;534;48.704;9.122;2024-03-08T09:02:16;24.80;;;15.50;;
1090;SDS011;534;48.704;9.122;2024-03-08T09:04:45;20.97;;;14.07;;
1090;SDS011;534;48.704;9.122;2024-03-08T09:07:12;21.23;;;15.90;;
1090;SDS011;534;48.704;9.122;2024-03-08T09:09:39;25.87;;;16.40;;
1090;SDS011;534;48.704;9.122;2024-03-08T09:12:07;23.23;;;16.07;;
1090;SDS011;534;48.704;9.122;2024-03-08T09:14:34;20.60;;;14.60;;
1090;SDS011;534;48.704;9.122;2024-03-08T09:17:02;22.23;;;14.30;;
1090;SDS011;534;48.704;9.122;2024-03-08T09:19:29;23.50;;;16.10;;
1090;SDS011;534;48.704;9.122;2024-03-08T09:21:57;21.27;;;15.57;;
1090;SDS011;534;48.704;9.122;2024-03-08T09:24:24;22.10;;;14.80;;
1090;SDS011;534;48.704;9.122;2024-03-08T09:26:50;23.73;;;14.30;;
1090;SDS011;534;48.704;9.122;2024-03-08T09:29:17;19.33;;;15.27;;
1090;SDS011;534;48.704;9.122;2024-03-08T09:31:44;16.57;;;11.90;;
1090;SDS011;534;48.704;9.122;2024-03-08T09:34:12;20.97;;;14.53;;
1090;SDS011;534;48.704;9.122;2024-03-08T09:36:39;21.40;;;14.37;;
1090;SDS011;534;48.704;9.122;2024-03-08T09:39:06;19.70;;;14.40;;
1090;SDS011;534;48.704;9.122;2024-03-08T09:41:33;17.77;;;13.10;;
1090;SDS011;534;48.704;9.122;2024-03-08T09:44:00;18.70;;;14.17;;
1090;SDS011;534;48.704;9.122;2024-03-08T09:46:26;20.30;;;13.60;;
1090;SDS011;534;48.704;9.122;2024-03-08T09:48:53;18.43;;;11.73;;
1090;SDS011;534;48.704;9.122;2024-03-08T09:51:22;17.10;;;11.07;;
1090;SDS011;534;48.704;9.122;2024-03-08T09:53:54;17.33;;;12.80;;
1090;SDS011;534;48.704;9.122;2024-03-08T09:56:21;20.50;;;14.47;;
1090;SDS011;534;48.704;9.122;2024-03-08T09:58:49;19.13;;;13.77;;
1090;SDS011;534;48.704;9.122;2024-03-08T10:01:33;20.10;;;11.90;;
1090;SDS011;534;48.704;9.122;2024-03-08T10:03:59;19.80;;;12.53;;
1090;SDS011;534;48.704;9.122;2024-03-08T10:06:29;20.43;;;12.43;;
1090;SDS011;534;48.704;9.122;2024-03-08T10:08:56;15.80;;;10.40;;
1090;SDS011;534;48.704;9.122;2024-03-08T10:11:22;18.37;;;13.37;;
1090;SDS011;534;48.704;9.122;2024-03-08T10:13:51;20.40;;;13.57;;
1090;SDS011;534;48.704;9.122;2024-03-08T10:16:18;23.23;;;15.60;;
1090;SDS011;534;48.704;9.122;2024-03-08T10:18:46;23.80;;;15.63;;
1090;SDS011;534;48.704;9.122;2024-03-08T10:21:12;22.00;;;15.73;;
1090;SDS011;534;48.704;9.122;2024-03-08T10:23:41;24.07;;;15.53;;
1090;SDS011;534;48.704;9.122;2024-03-08T10:26:11;25.27;;;16.17;;
1090;SDS011;534;48.704;9.122;2024-03-08T10:28:40;21.60;;;14.10;;
1090;SDS011;534;48.704;9.122;2024-03-08T10:31:07;22.20;;;14.70;;
1090;SDS011;534;48.704;9.122;2024-03-08T10:33:34;21.10;;;14.70;;
1090;SDS011;534;48.704;9.122;2024-03-08T10:36:03;22.00;;;16.77;;
1090;SDS011;534;48.704;9.122;2024-03-08T10:38:31;20.90;;;13.20;;
1090;SDS011;534;48.704;9.122;2024-03-08T10:41:00;21.23;;;14.20;;
1090;SDS011;534;48.704;9.122;2024-03-08T10:43:31;23.00;;;16.60;;
1090;SDS011;534;48.704;9.122;2024-03-08T10:46:04;21.57;;;15.80;;
1090;SDS011;534;48.704;9.122;2024-03-08T10:48:41;36.30;;;27.60;;
1090;SDS011;534;48.704;9.122;2024-03-08T10:51:10;18.50;;;13.87;;
1090;SDS011;534;48.704;9.122;2024-03-08T10:53:38;20.00;;;15.13;;
1090;SDS011;534;48.704;9.122;2024-03-08T10:56:07;19.50;;;13.30;;
1090;SDS011;534;48.704;9.122;2024-03-08T10:58:35;16.80;;;13.03;;
1090;SDS011;534;48.704;9.122;2024-03-08T11:01:03;18.33;;;13.47;;
1090;SDS011;534;48.704;9.122;2024-03-08T11:03:44;20.83;;;15.47;;
1090;SDS011;534;48.704;9.122;2024-03-08T11:06:13;20.70;;;14.90;;
1090;SDS011;534;48.704;9.122;2024-03-08T11:08:41;20.20;;;13.07;;
1090;SDS011;534;48.704;9.122;2024-03-08T11:13:59;23.30;;;14.20;;
1090;SDS011;534;48.704;9.122;2024-03-08T11:16:41;23.70;;;14.10;;
1090;SDS011;534;48.704;9.122;2024-03-08T11:19:23;22.43;;;14.50;;
1090;SDS011;534;48.704;9.122;2024-03-08T11:21:57;17.83;;;12.73;;
1090;SDS011;534;48.704;9.122;2024-03-08T11:24:24;18.93;;;12.53;;
1090;SDS011;534;48.704;9.122;2024-03-08T11:26:55;18.87;;;14.33;;
1090;SDS011;534;48.704;9.122;2024-03-08T11:29:36;20.67;;;15.50;;
1090;SDS011;534;48.704;9.122;2024-03-08T11:32:05;20.10;;;13.03;;
1090;SDS011;534;48.704;9.122;2024-03-08T11:34:33;14.50;;;10.20;;
1090;SDS011;534;48.704;9.122;2024-03-08T11:37:00;18.43;;;12.73;;
1090;SDS011;534;48.704;9.122;2024-03-08T11:39:27;21.23;;;13.30;;
1090;SDS011;534;48.704;9.122;2024-03-08T11:41:56;17.40;;;14.03;;
1090;SDS011;534;48.704;9.122;2024-03-08T11:44:26;18.67;;;14.03;;
1090;SDS011;534;48.704;9.122;2024-03-08T11:46:53;18.23;;;13.20;;
1090;SDS011;534;48.704;9.122;2024-03-08T11:49:20;17.17;;;12.87;;
1090;SDS011;534;48.704;9.122;2024-03-08T11:51:47;18.43;;;13.10;;
1090;SDS011;534;48.704;9.122;2024-03-08T11:54:17;19.30;;;13.87;;
1090;SDS011;534;48.704;9.122;2024-03-08T11:56:44;19.47;;;12.87;;
1090;SDS011;534;48.704;9.122;2024-03-08T11:59:14;20.93;;;13.97;;
1090;SDS011;534;48.704;9.122;2024-03-08T12:01:42;20.40;;;13.77;;
1090;SDS011;534;48.704;9.122;2024-03-08T12:04:11;17.60;;;13.27;;
1090;SDS011;534;48.704;9.122;2024-03-08T12:06:38;17.70;;;12.80;;
1090;SDS011;534;48.704;9.122;2024-03-08T12:09:09;22.23;;;14.00;;
1090;SDS011;534;48.704;9.122;2024-03-08T12:11:38;18.20;;;14.17;;
1090;SDS011;534;48.704;9.122;2024-03-08T12:14:06;19.13;;;12.90;;
1090;SDS011;534;48.704;9.122;2024-03-08T12:16:34;20.27;;;15.50;;
1090;SDS011;534;48.704;9.122;2024-03-08T12:19:02;18.90;;;14.73;;
1090;SDS011;534;48.704;9.122;2024-03-08T12:21:31;18.80;;;13.57;;
1090;SDS011;534;48.704;9.122;2024-03-08T12:24:03;16.70;;;12.20;;
1090;SDS011;534;48.704;9.122;2024-03-08T12:26:33;20.97;;;13.17;;
1090;SDS011;534;48.704;9.122;2024-03-08T12:29:20;22.77;;;15.37;;
1090;SDS011;534;48.704;9.122;2024-03-08T12:31:49;22.00;;;14.87;;
1090;SDS011;534;48.704;9.122;2024-03-08T12:34:18;17.73;;;12.17;;
1090;SDS011;534;48.704;9.122;2024-03-08T12:36:45;21.40;;;14.53;;
1090;SDS011;534;48.704;9.122;2024-03-08T12:39:17;20.13;;;15.97;;
1090;SDS011;534;48.704;9.122;2024-03-08T12:41:47;20.00;;;15.67;;
1090;SDS011;534;48.704;9.122;2024-03-08T12:44:16;20.17;;;14.73;;
1090;SDS011;534;48.704;9.122;2024-03-08T12:46:43;21.13;;;13.83;;
1090;SDS011;534;48.704;9.122;2024-03-08T12:49:12;22.47;;;15.50;;
1090;SDS011;534;48.704;9.122;2024-03-08T12:51:42;24.47;;;14.40;;
1090;SDS011;534;48.704;9.122;2024-03-08T12:54:09;21.33;;;14.80;;
1090;SDS011;534;48.704;9.122;2024-03-08T12:56:36;19.60;;;13.30;;
1090;SDS011;534;48.704;9.122;2024-03-08T12:59:03;19.33;;;13.33;;
1090;SDS011;534;48.704;9.122;2024-03-08T13:01:30;21.17;;;14.60;;
1090;SDS011;534;48.704;9.122;2024-03-08T13:03:58;19.50;;;14.60;;
1090;SDS011;534;48.704;9.122;2024-03-08T13:06:26;22.27;;;13.97;;
1090;SDS011;534;48.704;9.122;2024-03-08T13:08:53;19.30;;;12.67;;
1090;SDS011;534;48.704;9.122;2024-03-08T13:11:21;21.20;;;14.80;;
1090;SDS011;534;48.704;9.122;2024-03-08T13:13:48;17.40;;;13.43;;
1090;SDS011;534;48.704;9.122;2024-03-08T13:16:15;19.00;;;12.70;;
1090;SDS011;534;48.704;9.122;2024-03-08T13:18:44;19.63;;;13.60;;
1090;SDS011;534;48.704;9.122;2024-03-08T13:21:11;19.00;;;13.47;;
1090;SDS011;534;48.704;9.122;2024-03-08T13:23:40;22.03;;;15.97;;
1090;SDS011;534;48.704;9.122;2024-03-08T13:26:10;21.30;;;14.93;;
1090;SDS011;534;48.704;9.122;2024-03-08T13:28:40;18.53;;;15.33;;
1090;SDS011;534;48.704;9.122;2024-03-08T13:31:07;18.80;;;14.20;;
1090;SDS011;534;48.704;9.122;2024-03-08T13:33:35;18.70;;;15.40;;
1090;SDS011;534;48.704;9.122;2024-03-08T13:36:02;22.23;;;14.27;;
1090;SDS011;534;48.704;9.122;2024-03-08T13:38:31;18.20;;;14.87;;
1090;SDS011;534;48.704;9.122;2024-03-08T13:41:00;18.00;;;13.47;;
1090;SDS011;534;48.704;9.122;2024-03-08T13:43:27;20.00;;;15.00;;
1090;SDS011;534;48.704;9.122;2024-03-08T13:45:54;20.00;;;15.33;;
1090;SDS011;534;48.704;9.122;2024-03-08T13:48:21;23.20;;;15.80;;
1090;SDS011;534;48.704;9.122;2024-03-08T13:50:48;16.40;;;13.77;;
1090;SDS011;534;48.704;9.122;2024-03-08T13:53:16;23.10;;;14.90;;
1090;SDS011;534;48.704;9.122;2024-03-08T13:55:43;18.30;;;14.60;;
1090;SDS011;534;48.704;9.122;2024-03-08T13:58:11;18.40;;;13.87;;
1090;SDS011;534;48.704;9.122;2024-03-08T14:00:39;23.70;;;15.90;;
1090;SDS011;534;48.704;9.122;2024-03-08T14:03:08;24.63;;;15.87;;
1090;SDS011;534;48.704;9.122;2024-03-08T14:05:38;21.27;;;14.67;;
1090;SDS011;534;48.704;9.122;2024-03-08T14:08:05;20.77;;;15.33;;
1090;SDS011;534;48.704;9.122;2024-03-08T14:10:32;19.50;;;13.83;;
1090;SDS011;534;48.704;9.122;2024-03-08T14:12:59;18.37;;;14.97;;
1090;SDS011;534;48.704;9.122;2024-03-08T14:15:30;20.77;;;14.50;;
1090;SDS011;534;48.704;9.122;2024-03-08T14:17:56;16.80;;;13.27;;
1090;SDS011;534;48.704;9.122;2024-03-08T14:20:23;21.40;;;13.47;;
1090;SDS011;534;48.704;9.122;2024-03-08T14:22:50;18.27;;;13.40;;
1090;SDS011;534;48.704;9.122;2024-03-08T14:25:17;16.40;;;13.07;;
1090;SDS011;534;48.704;9.122;2024-03-08T14:27:44;18.73;;;13.40;;
1090;SDS011;534;48.704;9.122;2024-03-08T14:30:12;17.40;;;13.23;;
1090;SDS011;534;48.704;9.122;2024-03-08T14:32:44;19.07;;;15.17;;
1090;SDS011;534;48.704;9.122;2024-03-08T14:35:12;16.20;;;12.50;;
1090;SDS011;534;48.704;9.122;2024-03-08T14:37:40;20.30;;;16.10;;
1090;SDS011;534;48.704;9.122;2024-03-08T14:40:08;17.40;;;14.73;;
1090;SDS011;534;48.704;9.122;2024-03-08T14:42:35;18.30;;;14.30;;
1090;SDS011;534;48.704;9.122;2024-03-08T14:45:02;17.53;;;13.37;;
1090;SDS011;534;48.704;9.122;2024-03-08T14:47:30;17.30;;;13.90;;
1090;SDS011;534;48.704;9.122;2024-03-08T14:50:00;17.80;;;13.57;;
1090;SDS011;534;48.704;9.122;2024-03-08T14:52:26;19.33;;;14.77;;
1090;SDS011;534;48.704;9.122;2024-03-08T14:54:53;16.57;;;13.57;;
1090;SDS011;534;48.704;9.122;2024-03-08T14:57:21;16.73;;;12.57;;
1090;SDS011;534;48.704;9.122;2024-03-08T14:59:47;15.90;;;13.07;;
1090;SDS011;534;48.704;9.122;2024-03-08T15:02:15;19.43;;;15.03;;
1090;SDS011;534;48.704;9.122;2024-03-08T15:04:45;16.07;;;13.70;;
1090;SDS011;534;48.704;9.122;2024-03-08T15:07:19;20.67;;;14.30;;
1090;SDS011;534;48.704;9.122;2024-03-08T15:09:45;19.77;;;13.90;;
1090;SDS011;534;48.704;9.122;2024-03-08T15:12:12;17.17;;;13.33;;
1090;SDS011;534;48.704;9.122;2024-03-08T15:14:40;19.40;;;13.67;;
1090;SDS011;534;48.704;9.122;2024-03-08T15:17:09;19.03;;;13.67;;
1090;SDS011;534;48.704;9.122;2024-03-08T15:19:45;19.70;;;13.60;;
1090;SDS011;534;48.704;9.122;2024-03-08T15:22:13;19.00;;;13.60;;
1090;SDS011;534;48.704;9.122;2024-03-08T15:24:41;19.33;;;14.40;;
1090;SDS011;534;48.704;9.122;2024-03-08T15:27:08;21.83;;;15.17;;
1090;SDS011;534;48.704;9.122;2024-03-08T15:29:35;17.47;;;14.80;;
1090;SDS011;534;48.704;9.122;2024-03-08T15:32:02;19.80;;;14.83;;
1090;SDS011;534;48.704;9.122;2024-03-08T15:34:29;17.50;;;14.33;;
1090;SDS011;534;48.704;9.122;2024-03-08T15:36:57;19.27;;;14.13;;
1090;SDS011;534;48.704;9.122;2024-03-08T15:39:27;18.10;;;14.30;;
1090;SDS011;534;48.704;9.122;2024-03-08T15:41:57;22.10;;;16.13;;
1090;SDS011;534;48.704;9.122;2024-03-08T15:44:25;21.13;;;15.27;;
1090;SDS011;534;48.704;9.122;2024-03-08T15:46:52;20.70;;;15.60;;
1090;SDS011;534;48.704;9.122;2024-03-08T15:49:19;20.90;;;15.87;;
1090;SDS011;534;48.704;9.122;2024-03-08T15:51:45;22.77;;;15.53;;
1090;SDS011;534;48.704;9.122;2024-03-08T15:54:13;22.50;;;15.00;;
1090;SDS011;534;48.704;9.122;2024-03-08T15:56:40;20.70;;;14.80;;
1090;SDS011;534;48.704;9.122;2024-03-08T15:59:08;22.27;;;16.00;;
1090;SDS011;534;48.704;9.122;2024-03-08T16:01:34;20.80;;;15.23;;
1090;SDS011;534;48.704;9.122;2024-03-08T16:04:01;26.40;;;15.70;;
1090;SDS011;534;48.704;9.122;2024-03-08T16:06:29;24.30;;;16.07;;
1090;SDS011;534;48.704;9.122;2024-03-08T16:08:55;22.70;;;16.37;;
1090;SDS011;534;48.704;9.122;2024-03-08T16:11:24;20.60;;;14.63;;
1090;SDS011;534;48.704;9.122;2024-03-08T16:13:51;22.00;;;14.83;;
1090;SDS011;534;48.704;9.122;2024-03-08T16:16:19;20.60;;;15.10;;
1090;SDS011;534;48.704;9.122;2024-03-08T16:18:46;22.07;;;14.87;;
1090;SDS011;534;48.704;9.122;2024-03-08T16:21:13;20.70;;;15.60;;
1090;SDS011;534;48.704;9.122;2024-03-08T16:23:40;21.53;;;16.53;;
1090;SDS011;534;48.704;9.122;2024-03-08T16:26:08;23.10;;;15.63;;
1090;SDS011;534;48.704;9.122;2024-03-08T16:28:35;20.20;;;15.73;;
1090;SDS011;534;48.704;9.122;2024-03-08T16:31:06;23.30;;;15.97;;
1090;SDS011;534;48.704;9.122;2024-03-08T16:33:36;22.53;;;15.47;;
1090;SDS011;534;48.704;9.122;2024-03-08T16:36:04;23.20;;;14.27;;
1090;SDS011;534;48.704;9.122;2024-03-08T16:38:31;21.30;;;14.20;;
1090;SDS011;534;48.704;9.122;2024-03-08T16:41:01;22.17;;;16.60;;
1090;SDS011;534;48.704;9.122;2024-03-08T16:43:29;20.80;;;15.83;;
1090;SDS011;534;48.704;9.122;2024-03-08T16:45:56;20.97;;;14.90;;
1090;SDS011;534;48.704;9.122;2024-03-08T16:48:25;22.37;;;15.57;;
1090;SDS011;534;48.704;9.122;2024-03-08T16:50:53;29.00;;;15.43;;
1090;SDS011;534;48.704;9.122;2024-03-08T16:53:20;24.20;;;15.30;;
1090;SDS011;534;48.704;9.122;2024-03-08T16:55:46;20.10;;;14.27;;
1090;SDS011;534;48.704;9.122;2024-03-08T16:58:15;22.80;;;15.73;;
1090;SDS011;534;48.704;9.122;2024-03-08T17:00:43;20.27;;;15.00;;
1090;SDS011;534;48.704;9.122;2024-03-08T17:03:10;22.37;;;15.40;;
1090;SDS011;534;48.704;9.122;2024-03-08T17:05:37;21.00;;;14.90;;
1090;SDS011;534;48.704;9.122;2024-03-08T17:08:10;19.70;;;13.77;;
1090;SDS011;534;48.704;9.122;2024-03-08T17:10:37;22.60;;;14.70;;
1090;SDS011;534;48.704;9.122;2024-03-08T17:13:05;20.93;;;14.23;;
1090;SDS011;534;48.704;9.122;2024-03-08T17:15:33;21.17;;;14.77;;
1090;SDS011;534;48.704;9.122;2024-03-08T17:20:30;23.67;;;15.60;;
1090;SDS011;534;48.704;9.122;2024-03-08T17:22:58;22.97;;;16.00;;
1090;SDS011;534;48.704;9.122;2024-03-08T17:25:27;18.30;;;15.10;;
1090;SDS011;534;48.704;9.122;2024-03-08T17:27:53;23.50;;;14.97;;
1090;SDS011;534;48.704;9.122;2024-03-08T17:30:21;17.83;;;13.83;;
1090;SDS011;534;48.704;9.122;2024-03-08T17:32:52;23.33;;;16.57;;
1090;SDS011;534;48.704;9.122;2024-03-08T17:35:20;24.00;;;15.90;;
1090;SDS011;534;48.704;9.122;2024-03-08T17:37:47;23.33;;;16.23;;
1090;SDS011;534;48.704;9.122;2024-03-08T17:40:16;21.50;;;15.73;;
1090;SDS011;534;48.704;9.122;2024-03-08T17:42:48;24.03;;;15.70;;
1090;SDS011;534;48.704;9.122;2024-03-08T17:45:16;22.50;;;15.30;;
1090;SDS011;534;48.704;9.122;2024-03-08T17:47:44;20.40;;;14.17;;
1090;SDS011;534;48.704;9.122;2024-03-08T17:50:11;20.53;;;14.23;;
1090;SDS011;534;48.704;9.122;2024-03-08T17:52:40;21.00;;;15.07;;
1090;SDS011;534;48.704;9.122;2024-03-08T17:55:08;18.20;;;12.37;;
1090;SDS011;534;48.704;9.122;2024-03-08T17:57:38;21.00;;;15.13;;
1090;SDS011;534;48.704;9.122;2024-03-08T18:00:08;17.47;;;12.93;;
1090;SDS011;534;48.704;9.122;2024-03-08T18:02:43;16.70;;;12.70;;
1090;SDS011;534;48.704;9.122;2024-03-08T18:05:14;18.33;;;13.30;;
1090;SDS011;534;48.704;9.122;2024-03-08T18:07:41;17.50;;;12.53;;
1090;SDS011;534;48.704;9.122;2024-03-08T18:10:09;18.20;;;13.40;;
1090;SDS011;534;48.704;9.122;2024-03-08T18:12:43;17.03;;;12.17;;
1090;SDS011;534;48.704;9.122;2024-03-08T18:15:17;17.87;;;12.27;;
1090;SDS011;534;48.704;9.122;2024-03-08T18:17:49;19.30;;;12.60;;
1090;SDS011;534;48.704;9.122;2024-03-08T18:20:16;17.77;;;12.87;;
1090;SDS011;534;48.704;9.122;2024-03-08T18:22:46;19.13;;;12.60;;
1090;SDS011;534;48.704;9.122;2024-03-08T18:25:13;17.53;;;12.20;;
1090;SDS011;534;48.704;9.122;2024-03-08T18:27:43;18.90;;;12.87;;
1090;SDS011;534;48.704;9.122;2024-03-08T18:30:10;18.70;;;11.97;;
1090;SDS011;534;48.704;9.122;2024-03-08T18:32:41;17.00;;;11.30;;
1090;SDS011;534;48.704;9.122;2024-03-08T18:35:09;20.63;;;12.33;;
1090;SDS011;534;48.704;9.122;2024-03-08T18:37:37;15.60;;;10.70;;
1090;SDS011;534;48.704;9.122;2024-03-08T18:40:05;18.07;;;12.53;;
1090;SDS011;534;48.704;9.122;2024-03-08T18:42:37;16.90;;;12.83;;
1090;SDS011;534;48.704;9.122;2024-03-08T18:45:05;17.20;;;11.37;;
1090;SDS011;534;48.704;9.122;2024-03-08T18:47:35;18.60;;;12.57;;
1090;SDS011;534;48.704;9.122;2024-03-08T18:50:04;17.90;;;13.23;;
1090;SDS011;534;48.704;9.122;2024-03-08T18:52:32;18.80;;;12.50;;
1090;SDS011;534;48.704;9.122;2024-03-08T18:54:59;18.67;;;14.20;;
1090;SDS011;534;48.704;9.122;2024-03-08T18:57:25;18.60;;;13.30;;
1090;SDS011;534;48.704;9.122;2024-03-08T18:59:52;17.53;;;11.50;;
1090;SDS011;534;48.704;9.122;2024-03-08T19:02:19;18.80;;;12.67;;
1090;SDS011;534;48.704;9.122;2024-03-08T19:04:47;19.60;;;13.17;;
1090;SDS011;534;48.704;9.122;2024-03-08T19:07:15;18.20;;;11.80;;
1090;SDS011;534;48.704;9.122;2024-03-08T19:09:41;18.10;;;12.23;;
1090;SDS011;534;48.704;9.122;2024-03-08T19:12:11;17.90;;;11.20;;
1090;SDS011;534;48.704;9.122;2024-03-08T19:14:38;16.07;;;11.40;;
1090;SDS011;534;48.704;9.122;2024-03-08T19:17:05;14.90;;;11.37;;
1090;SDS011;534;48.704;9.122;2024-03-08T19:19:35;16.00;;;11.53;;
1090;SDS011;534;48.704;9.122;2024-03-08T19:22:03;19.03;;;13.43;;
1090;SDS011;534;48.704;9.122;2024-03-08T19:24:32;17.07;;;11.63;;
1090;SDS011;534;48.704;9.122;2024-03-08T19:27:00;17.43;;;11.80;;
1090;SDS011;534;48.704;9.122;2024-03-08T19:29:27;20.80;;;12.93;;
1090;SDS011;534;48.704;9.122;2024-03-08T19:31:54;17.83;;;11.83;;
1090;SDS011;534;48.704;9.122;2024-03-08T19:34:22;17.00;;;12.77;;
1090;SDS011;534;48.704;9.122;2024-03-08T19:36:51;17.03;;;12.20;;
1090;SDS011;534;48.704;9.122;2024-03-08T19:39:17;15.30;;;12.33;;
1090;SDS011;534;48.704;9.122;2024-03-08T19:41:47;15.97;;;11.57;;
1090;SDS011;534;48.704;9.122;2024-03-08T19:44:13;16.07;;;11.23;;
1090;SDS011;534;48.704;9.122;2024-03-08T19:46:40;16.83;;;12.30;;
1090;SDS011;534;48.704;9.122;2024-03-08T19:49:08;15.73;;;12.17;;
1090;SDS011;534;48.704;9.122;2024-03-08T19:51:35;17.97;;;12.77;;
1090;SDS011;534;48.704;9.122;2024-03-08T19:54:02;16.07;;;12.27;;
1090;SDS011;534;48.704;9.122;2024-03-08T19:56:29;14.87;;;11.57;;
1090;SDS011;534;48.704;9.122;2024-03-08T19:58:58;18.20;;;12.40;;
1090;SDS011;534;48.704;9.122;2024-03-08T20:01:25;17.67;;;13.10;;
1090;SDS011;534;48.704;9.122;2024-03-08T20:03:51;16.97;;;12.30;;
1090;SDS011;534;48.704;9.122;2024-03-08T20:06:18;17.13;;;12.17;;
1090;SDS011;534;48.704;9.122;2024-03-08T20:08:46;16.90;;;12.83;;
1090;SDS011;534;48.704;9.122;2024-03-08T20:11:13;20.70;;;14.77;;
1090;SDS011;534;48.704;9.122;2024-03-08T20:13:40;16.33;;;12.53;;